createdAt,value
2023-04-12T00:04:42.677Z,8.50
2023-04-12T00:09:44.759Z,8.60
2023-04-12T00:14:46.694Z,8.70
2023-04-12T00:19:50.403Z,8.70
2023-04-12T00:24:52.514Z,8.70
2023-04-12T00:29:54.346Z,8.80
2023-04-12T00:34:56.175Z,8.70
2023-04-12T00:39:57.962Z,8.70
2023-04-12T00:44:59.987Z,8.70
2023-04-12T00:50:03.245Z,8.60
2023-04-12T00:55:05.545Z,8.50
2023-04-12T01:00:11.284Z,8.60
2023-04-12T01:05:15.045Z,8.80
2023-04-12T01:10:44.074Z,8.70
2023-04-12T01:15:54.757Z,8.90
2023-04-12T01:21:05.938Z,8.80
2023-04-12T01:26:33.313Z,8.80
2023-04-12T01:31:37.090Z,9.00
2023-04-12T01:36:40.153Z,9.10
2023-04-12T01:41:45.412Z,8.90
2023-04-12T01:46:48.780Z,8.90
2023-04-12T01:52:02.635Z,8.90
2023-04-12T01:57:06.075Z,9.00
2023-04-12T02:02:13.239Z,8.90
2023-04-12T02:07:18.787Z,9.00
2023-04-12T02:12:22.641Z,8.90
2023-04-12T02:17:24.767Z,9.10
2023-04-12T02:22:26.498Z,9.10
2023-04-12T02:27:28.556Z,8.90
2023-04-12T02:32:31.182Z,8.90
2023-04-12T02:37:33.316Z,9.00
2023-04-12T02:42:35.686Z,8.90
2023-04-12T02:47:38.388Z,9.10
2023-04-12T02:52:40.455Z,9.80
2023-04-12T02:57:43.010Z,9.20
2023-04-12T03:02:45.294Z,9.20
2023-04-12T03:07:47.171Z,9.00
2023-04-12T03:12:48.878Z,9.00
2023-04-12T03:17:51.514Z,9.10
2023-04-12T03:22:53.301Z,9.10
2023-04-12T03:27:55.018Z,8.90
2023-04-12T03:32:56.981Z,8.80
2023-04-12T03:37:58.958Z,8.90
2023-04-12T03:43:02.152Z,8.90
2023-04-12T03:48:05.090Z,9.10
2023-04-12T03:53:07.148Z,8.90
2023-04-12T03:58:09.405Z,9.00
2023-04-12T04:03:11.819Z,9.10
2023-04-12T04:08:14.022Z,9.10
2023-04-12T04:13:16.122Z,9.10
2023-04-12T04:18:17.940Z,8.90
2023-04-12T04:23:19.643Z,9.10
2023-04-12T04:28:22.200Z,9.10
2023-04-12T04:33:24.419Z,9.10
2023-04-12T04:38:26.534Z,9.00
2023-04-12T04:43:31.823Z,8.90
2023-04-12T04:48:33.833Z,9.00
2023-04-12T04:53:36.768Z,9.00
2023-04-12T04:58:38.898Z,9.00
2023-04-12T05:03:41.138Z,9.10
2023-04-12T05:08:43.058Z,9.10
2023-04-12T05:13:44.991Z,9.20
2023-04-12T05:18:46.892Z,9.10
2023-04-12T05:23:48.895Z,9.00
2023-04-12T05:28:50.696Z,9.00
2023-04-12T05:33:53.810Z,9.00
2023-04-12T05:38:56.157Z,9.60
2023-04-12T05:43:58.291Z,9.10
2023-04-12T05:49:00.048Z,9.10
2023-04-12T05:54:04.019Z,9.10
2023-04-12T05:59:06.774Z,9.10
2023-04-12T06:04:09.130Z,9.00
2023-04-12T06:09:11.254Z,9.00
2023-04-12T06:14:13.068Z,9.10
2023-04-12T06:19:14.933Z,9.10
2023-04-12T06:24:16.778Z,9.10
2023-04-12T06:29:18.600Z,9.20
2023-04-12T06:34:20.888Z,9.20
2023-04-12T06:39:22.590Z,11.90
2023-04-12T06:44:24.670Z,9.10
2023-04-12T06:49:26.467Z,9.10
2023-04-12T06:54:28.333Z,9.50
2023-04-12T07:04:31.868Z,9.50
2023-04-12T07:09:33.877Z,10.30
2023-04-12T07:14:36.001Z,9.80
2023-04-12T07:19:38.114Z,9.80
2023-04-12T07:24:40.169Z,9.80
2023-04-12T07:29:42.366Z,9.90
2023-04-12T07:34:44.503Z,10.40
2023-04-12T07:39:46.698Z,9.90
2023-04-12T07:44:48.427Z,9.80
2023-04-12T07:49:50.689Z,10.20
2023-04-12T07:54:52.769Z,9.90
2023-04-12T07:59:54.535Z,10.20
2023-04-12T08:04:56.418Z,9.90
2023-04-12T08:09:58.439Z,10.10
2023-04-12T08:15:00.350Z,10.30
2023-04-12T08:20:03.728Z,10.30
2023-04-12T08:25:07.237Z,10.30
2023-04-12T08:30:10.839Z,10.20
2023-04-12T08:35:12.689Z,10.40
2023-04-12T08:40:14.738Z,10.40
2023-04-12T08:45:17.034Z,10.60
2023-04-12T08:50:21.517Z,10.50
2023-04-12T08:55:23.380Z,10.60
2023-04-12T09:00:26.433Z,10.60
2023-04-12T09:05:31.847Z,10.80
2023-04-12T09:10:38.657Z,10.80
2023-04-12T09:15:49.988Z,10.70
2023-04-12T09:21:07.114Z,9.70
2023-04-12T09:26:26.880Z,11.20
2023-04-12T09:31:28.778Z,11.40
2023-04-12T09:36:38.682Z,11.50
2023-04-12T09:41:40.894Z,11.60
2023-04-12T09:46:51.980Z,12.10
2023-04-12T09:51:54.204Z,11.10
2023-04-12T09:56:57.552Z,11.30
2023-04-12T10:01:59.689Z,11.30
2023-04-12T10:07:02.468Z,11.40
2023-04-12T10:12:05.197Z,11.60
2023-04-12T10:17:11.117Z,11.80
2023-04-12T10:22:13.105Z,11.90
2023-04-12T10:27:26.233Z,9.20
2023-04-12T10:32:28.404Z,12.20
2023-04-12T10:38:02.507Z,12.10
2023-04-12T10:43:22.734Z,12.10
2023-04-12T10:48:33.480Z,12.40
2023-04-12T10:53:35.210Z,12.50
2023-04-12T10:58:49.300Z,12.50
2023-04-12T11:04:10.992Z,12.40
2023-04-12T11:09:27.752Z,12.30
2023-04-12T11:14:34.757Z,12.10
2023-04-12T11:19:41.968Z,12.20
2023-04-12T11:24:45.025Z,12.70
2023-04-12T11:29:50.942Z,12.80
2023-04-12T11:34:55.912Z,13.00
2023-04-12T11:39:58.767Z,12.90
2023-04-12T11:45:05.632Z,13.10
2023-04-12T11:50:11.751Z,13.10
2023-04-12T11:55:13.986Z,13.20
2023-04-12T12:00:16.441Z,13.10
2023-04-12T12:05:19.275Z,13.30
2023-04-12T12:10:36.644Z,13.10
2023-04-12T12:15:45.220Z,13.30
2023-04-12T12:20:51.359Z,13.20
2023-04-12T12:26:02.976Z,13.20
2023-04-12T12:31:12.876Z,13.30
2023-04-12T12:36:18.515Z,13.50
2023-04-12T12:41:24.922Z,13.70
2023-04-12T12:46:37.360Z,13.70
2023-04-12T12:51:50.468Z,13.80
2023-04-12T12:56:52.578Z,14.20
2023-04-12T13:01:54.340Z,14.00
2023-04-12T13:06:56.085Z,13.60
2023-04-12T13:11:57.924Z,13.70
2023-04-12T13:17:00.385Z,14.20
2023-04-12T13:22:02.687Z,14.20
2023-04-12T13:27:04.906Z,13.90
2023-04-12T13:32:07.067Z,14.20
2023-04-12T13:37:08.791Z,14.10
2023-04-12T13:42:11.251Z,14.60
2023-04-12T13:47:13.567Z,15.50
2023-04-12T13:52:16.003Z,15.00
2023-04-12T13:57:17.745Z,14.50
2023-04-12T14:02:19.588Z,14.20
2023-04-12T14:07:21.823Z,14.90
2023-04-12T14:12:23.597Z,14.90
2023-04-12T14:17:25.547Z,15.20
2023-04-12T14:22:27.688Z,15.10
2023-04-12T14:27:29.472Z,14.20
2023-04-12T14:32:31.416Z,14.20
2023-04-12T14:37:33.246Z,14.10
2023-04-12T14:42:35.777Z,14.10
2023-04-12T14:47:37.572Z,14.40
2023-04-12T14:52:39.459Z,14.70
2023-04-12T14:57:42.271Z,14.90
2023-04-12T15:02:44.722Z,14.90
2023-04-12T15:07:47.903Z,15.00
2023-04-12T15:12:50.806Z,15.30
2023-04-12T15:17:52.957Z,15.20
2023-04-12T15:22:54.784Z,15.10
2023-04-12T15:27:56.537Z,14.90
2023-04-12T15:32:58.478Z,14.60
2023-04-12T15:38:00.311Z,14.40
2023-04-12T15:43:02.396Z,14.10
2023-04-12T15:48:04.282Z,12.80
2023-04-12T15:53:06.431Z,13.00
2023-04-12T15:58:08.882Z,11.80
2023-04-12T16:03:12.733Z,11.70
2023-04-12T16:08:14.822Z,11.40
2023-04-12T16:13:16.717Z,11.20
2023-04-12T16:18:19.087Z,11.30
2023-04-12T16:23:20.971Z,11.10
2023-04-12T16:28:22.733Z,11.40
2023-04-12T16:33:24.897Z,11.60
2023-04-12T16:38:26.895Z,11.80
2023-04-12T16:43:28.920Z,11.50
2023-04-12T16:48:31.783Z,11.20
2023-04-12T16:53:33.725Z,11.30
2023-04-12T16:58:36.462Z,11.30
2023-04-12T17:03:38.323Z,11.40
2023-04-12T17:08:40.637Z,11.40
2023-04-12T17:13:42.952Z,11.50
2023-04-12T17:18:45.052Z,11.60
2023-04-12T17:23:50.625Z,11.50
2023-04-12T17:28:52.831Z,11.40
2023-04-12T17:33:54.990Z,11.40
2023-04-12T17:39:00.110Z,11.40
2023-04-12T17:44:02.272Z,11.40
2023-04-12T17:49:05.963Z,11.30
2023-04-12T17:54:07.850Z,11.10
2023-04-12T17:59:10.706Z,11.10
2023-04-12T18:04:12.808Z,11.00
2023-04-12T18:09:15.237Z,11.20
2023-04-12T18:14:17.520Z,10.90
2023-04-12T18:19:19.569Z,11.10
2023-04-12T18:24:21.503Z,12.10
2023-04-12T18:29:23.524Z,11.00
2023-04-12T18:34:25.651Z,10.90
2023-04-12T18:39:27.567Z,10.80
2023-04-12T18:44:31.422Z,10.70
2023-04-12T18:49:33.974Z,10.80
2023-04-12T18:54:35.718Z,10.80
2023-04-12T18:59:37.889Z,10.80
2023-04-12T19:04:41.527Z,10.70
2023-04-12T19:09:43.266Z,10.50
2023-04-12T19:14:45.309Z,10.60
2023-04-12T19:19:47.109Z,10.50
2023-04-12T19:24:52.420Z,10.50
2023-04-12T19:29:54.507Z,10.40
2023-04-12T19:34:56.745Z,10.60
2023-04-12T19:39:58.472Z,10.60
2023-04-12T19:45:03.475Z,10.40
2023-04-12T19:50:06.048Z,10.40
2023-04-12T19:55:08.487Z,10.30
2023-04-12T20:00:19.514Z,10.40
2023-04-12T20:05:23.293Z,10.30
2023-04-12T20:10:25.417Z,10.40
2023-04-12T20:15:27.610Z,10.40
2023-04-12T20:20:29.357Z,10.40
2023-04-12T20:25:35.780Z,10.50
2023-04-12T20:30:37.628Z,10.50
2023-04-12T20:35:39.339Z,11.20
2023-04-12T20:40:41.195Z,10.50
2023-04-12T20:45:42.950Z,10.40
2023-04-12T20:50:46.198Z,10.30
2023-04-12T20:55:48.675Z,10.30
2023-04-12T21:00:50.679Z,10.30
2023-04-12T21:05:52.868Z,10.30
2023-04-12T21:10:54.753Z,10.80
2023-04-12T21:15:57.146Z,10.10
2023-04-12T21:20:59.810Z,9.30
2023-04-12T21:26:02.593Z,9.40
2023-04-12T21:31:04.877Z,9.40
2023-04-12T21:36:07.436Z,9.30
2023-04-12T21:41:11.523Z,9.20
2023-04-12T21:46:13.689Z,9.40
2023-04-12T21:51:15.517Z,9.20
2023-04-12T21:56:17.390Z,9.40
2023-04-12T22:01:19.449Z,9.50
2023-04-12T22:06:21.562Z,9.60
2023-04-12T22:11:23.372Z,9.50
2023-04-12T22:16:25.310Z,9.50
2023-04-12T22:21:28.427Z,9.40
2023-04-12T22:26:31.429Z,9.40
2023-04-12T22:31:33.321Z,9.50
2023-04-12T22:36:37.519Z,9.40
2023-04-12T22:41:41.846Z,9.50
2023-04-12T22:46:48.060Z,9.50
2023-04-12T22:51:49.994Z,9.40
2023-04-12T22:56:52.517Z,9.50
2023-04-12T23:01:54.792Z,9.50
2023-04-12T23:06:56.713Z,9.30
2023-04-12T23:11:58.639Z,9.30
2023-04-12T23:17:01.112Z,9.40
2023-04-12T23:22:03.413Z,9.40
2023-04-12T23:27:05.659Z,9.30
2023-04-12T23:32:07.437Z,9.20
2023-04-12T23:37:11.037Z,9.20
2023-04-12T23:42:12.854Z,9.30
2023-04-12T23:47:14.683Z,9.20
2023-04-12T23:52:19.469Z,9.30
2023-04-12T23:57:21.814Z,9.20
